sensor_id;sensor_type;location;lat;lon;timestamp;pressure;altitude;pressure_sealevel;temperature;humidity
48015;BME280;33780;51.034;7.120;2023-05-16T00:02:23;100750.31;;;15.61;64.26
48015;BME280;33780;51.034;7.120;2023-05-16T00:04:49;100748.91;;;15.57;64.42
48015;BME280;33780;51.034;7.120;2023-05-16T00:07:14;100754.31;;;15.57;64.81
48015;BME280;33780;51.034;7.120;2023-05-16T00:09:40;100749.94;;;15.56;65.26
48015;BME280;33780;51.034;7.120;2023-05-16T00:12:06;100750.09;;;15.54;65.32
48015;BME280;33780;51.034;7.120;2023-05-16T00:14:31;100747.56;;;15.53;65.00
48015;BME280;33780;51.034;7.120;2023-05-16T00:16:57;100750.06;;;15.46;65.71
48015;BME280;33780;51.034;7.120;2023-05-16T00:19:23;100752.56;;;15.39;66.67
48015;BME280;33780;51.034;7.120;2023-05-16T00:21:48;100758.28;;;15.36;65.92
48015;BME280;33780;51.034;7.120;2023-05-16T00:24:14;100759.97;;;15.37;66.43
48015;BME280;33780;51.034;7.120;2023-05-16T00:26:39;100752.03;;;15.36;65.92
48015;BME280;33780;51.034;7.120;2023-05-16T00:29:05;100753.91;;;15.35;65.96
48015;BME280;33780;51.034;7.120;2023-05-16T00:31:31;100754.06;;;15.34;66.86
48015;BME280;33780;51.034;7.120;2023-05-16T00:33:56;100749.78;;;15.23;66.28
48015;BME280;33780;51.034;7.120;2023-05-16T00:36:21;100749.09;;;15.21;66.82
48015;BME280;33780;51.034;7.120;2023-05-16T00:38:46;100751.97;;;15.20;66.77
48015;BME280;33780;51.034;7.120;2023-05-16T00:41:12;100748.59;;;15.18;67.33
48015;BME280;33780;51.034;7.120;2023-05-16T00:43:37;100749.59;;;15.17;66.54
48015;BME280;33780;51.034;7.120;2023-05-16T00:46:03;100754.97;;;15.17;68.28
48015;BME280;33780;51.034;7.120;2023-05-16T00:48:29;100749.91;;;15.14;67.35
48015;BME280;33780;51.034;7.120;2023-05-16T00:50:54;100755.47;;;15.12;68.02
48015;BME280;33780;51.034;7.120;2023-05-16T00:53:20;100750.69;;;15.06;68.55
48015;BME280;33780;51.034;7.120;2023-05-16T00:55:46;100751.34;;;15.00;67.55
48015;BME280;33780;51.034;7.120;2023-05-16T00:58:11;100748.63;;;14.92;67.63
48015;BME280;33780;51.034;7.120;2023-05-16T01:00:37;100750.41;;;14.83;67.96
48015;BME280;33780;51.034;7.120;2023-05-16T01:03:05;100747.50;;;14.76;67.87
48015;BME280;33780;51.034;7.120;2023-05-16T01:05:31;100755.69;;;14.67;68.01
48015;BME280;33780;51.034;7.120;2023-05-16T01:07:57;100755.94;;;14.56;68.33
48015;BME280;33780;51.034;7.120;2023-05-16T01:10:22;100761.78;;;14.51;69.48
48015;BME280;33780;51.034;7.120;2023-05-16T01:13:11;100760.00;;;14.42;69.55
48015;BME280;33780;51.034;7.120;2023-05-16T01:15:46;100764.84;;;14.38;68.49
48015;BME280;33780;51.034;7.120;2023-05-16T01:18:24;100763.53;;;14.42;68.25
48015;BME280;33780;51.034;7.120;2023-05-16T01:21:03;100764.69;;;14.40;68.50
48015;BME280;33780;51.034;7.120;2023-05-16T01:23:58;100766.63;;;14.30;68.63
48015;BME280;33780;51.034;7.120;2023-05-16T01:26:28;100772.63;;;14.24;69.31
48015;BME280;33780;51.034;7.120;2023-05-16T01:28:54;100772.94;;;14.20;68.97
48015;BME280;33780;51.034;7.120;2023-05-16T01:31:20;100776.91;;;14.16;69.58
48015;BME280;33780;51.034;7.120;2023-05-16T01:33:46;100769.47;;;14.10;68.91
48015;BME280;33780;51.034;7.120;2023-05-16T01:36:24;100771.78;;;14.05;69.60
48015;BME280;33780;51.034;7.120;2023-05-16T01:39:32;100778.47;;;14.01;69.70
48015;BME280;33780;51.034;7.120;2023-05-16T01:42:07;100772.84;;;13.95;69.35
48015;BME280;33780;51.034;7.120;2023-05-16T01:44:42;100780.06;;;13.94;69.75
48015;BME280;33780;51.034;7.120;2023-05-16T01:47:13;100787.81;;;13.97;69.11
48015;BME280;33780;51.034;7.120;2023-05-16T01:49:45;100792.34;;;13.97;68.85
48015;BME280;33780;51.034;7.120;2023-05-16T01:52:18;100795.91;;;13.97;69.40
48015;BME280;33780;51.034;7.120;2023-05-16T01:54:47;100795.19;;;13.95;69.01
48015;BME280;33780;51.034;7.120;2023-05-16T01:57:13;100801.75;;;13.93;69.79
48015;BME280;33780;51.034;7.120;2023-05-16T01:59:40;100801.91;;;13.91;69.39
48015;BME280;33780;51.034;7.120;2023-05-16T02:02:07;100812.97;;;13.88;69.24
48015;BME280;33780;51.034;7.120;2023-05-16T02:04:32;100813.41;;;13.83;69.15
48015;BME280;33780;51.034;7.120;2023-05-16T02:06:57;100814.53;;;13.81;69.33
48015;BME280;33780;51.034;7.120;2023-05-16T02:09:24;100815.31;;;13.73;69.31
48015;BME280;33780;51.034;7.120;2023-05-16T02:11:50;100816.31;;;13.72;69.16
48015;BME280;33780;51.034;7.120;2023-05-16T02:14:15;100820.84;;;13.72;69.72
48015;BME280;33780;51.034;7.120;2023-05-16T02:16:40;100822.69;;;13.71;69.11
48015;BME280;33780;51.034;7.120;2023-05-16T02:19:06;100819.03;;;13.63;69.05
48015;BME280;33780;51.034;7.120;2023-05-16T02:21:31;100826.59;;;13.49;69.52
48015;BME280;33780;51.034;7.120;2023-05-16T02:23:56;100818.53;;;13.49;69.83
48015;BME280;33780;51.034;7.120;2023-05-16T02:26:21;100824.63;;;13.51;69.50
48015;BME280;33780;51.034;7.120;2023-05-16T02:28:47;100824.63;;;13.51;69.17
48015;BME280;33780;51.034;7.120;2023-05-16T02:31:25;100832.41;;;13.45;70.53
48015;BME280;33780;51.034;7.120;2023-05-16T02:33:50;100841.22;;;13.37;69.95
48015;BME280;33780;51.034;7.120;2023-05-16T02:36:15;100855.66;;;13.36;70.21
48015;BME280;33780;51.034;7.120;2023-05-16T02:38:40;100852.81;;;13.38;70.04
48015;BME280;33780;51.034;7.120;2023-05-16T02:41:06;100857.91;;;13.41;70.30
48015;BME280;33780;51.034;7.120;2023-05-16T02:43:31;100855.66;;;13.36;69.81
48015;BME280;33780;51.034;7.120;2023-05-16T02:45:56;100869.41;;;13.23;70.03
48015;BME280;33780;51.034;7.120;2023-05-16T02:48:21;100864.47;;;13.19;69.91
48015;BME280;33780;51.034;7.120;2023-05-16T02:50:47;100872.38;;;13.11;70.00
48015;BME280;33780;51.034;7.120;2023-05-16T02:53:12;100883.00;;;13.12;69.67
48015;BME280;33780;51.034;7.120;2023-05-16T02:55:37;100886.97;;;13.18;69.78
48015;BME280;33780;51.034;7.120;2023-05-16T02:58:03;100889.22;;;13.13;68.63
48015;BME280;33780;51.034;7.120;2023-05-16T03:00:29;100886.66;;;13.01;69.29
48015;BME280;33780;51.034;7.120;2023-05-16T03:02:54;100903.38;;;12.95;69.44
48015;BME280;33780;51.034;7.120;2023-05-16T03:05:19;100891.78;;;12.95;69.25
48015;BME280;33780;51.034;7.120;2023-05-16T03:07:45;100908.16;;;12.92;69.75
48015;BME280;33780;51.034;7.120;2023-05-16T03:10:10;100909.28;;;12.89;69.33
48015;BME280;33780;51.034;7.120;2023-05-16T03:12:36;100910.13;;;12.90;69.30
48015;BME280;33780;51.034;7.120;2023-05-16T03:15:01;100900.94;;;12.92;68.82
48015;BME280;33780;51.034;7.120;2023-05-16T03:17:26;100902.53;;;12.95;68.52
48015;BME280;33780;51.034;7.120;2023-05-16T03:19:52;100908.44;;;12.98;69.05
48015;BME280;33780;51.034;7.120;2023-05-16T03:22:18;100910.56;;;13.05;68.85
48015;BME280;33780;51.034;7.120;2023-05-16T03:24:43;100911.25;;;13.07;68.48
48015;BME280;33780;51.034;7.120;2023-05-16T03:27:08;100921.31;;;13.05;67.35
48015;BME280;33780;51.034;7.120;2023-05-16T03:29:34;100915.66;;;12.98;67.04
48015;BME280;33780;51.034;7.120;2023-05-16T03:31:59;100914.25;;;12.94;67.88
48015;BME280;33780;51.034;7.120;2023-05-16T03:34:24;100921.47;;;12.93;67.61
48015;BME280;33780;51.034;7.120;2023-05-16T03:36:50;100917.78;;;12.94;67.53
48015;BME280;33780;51.034;7.120;2023-05-16T03:39:16;100934.16;;;12.91;67.14
48015;BME280;33780;51.034;7.120;2023-05-16T03:41:42;100928.09;;;12.89;67.20
48015;BME280;33780;51.034;7.120;2023-05-16T03:44:07;100929.78;;;12.90;68.03
48015;BME280;33780;51.034;7.120;2023-05-16T03:46:32;100933.31;;;12.91;67.67
48015;BME280;33780;51.034;7.120;2023-05-16T03:48:59;100933.59;;;12.88;67.32
48015;BME280;33780;51.034;7.120;2023-05-16T03:51:24;100942.81;;;12.85;67.29
48015;BME280;33780;51.034;7.120;2023-05-16T03:53:49;100945.50;;;12.85;67.32
48015;BME280;33780;51.034;7.120;2023-05-16T03:56:15;100946.34;;;12.86;67.69
48015;BME280;33780;51.034;7.120;2023-05-16T03:58:40;100946.34;;;12.86;67.22
48015;BME280;33780;51.034;7.120;2023-05-16T04:01:05;100956.09;;;12.87;67.49
48015;BME280;33780;51.034;7.120;2023-05-16T04:03:30;100955.09;;;12.88;67.73
48015;BME280;33780;51.034;7.120;2023-05-16T04:05:57;100959.34;;;12.90;67.56
48015;BME280;33780;51.034;7.120;2023-05-16T04:08:23;100963.72;;;12.91;67.79
48015;BME280;33780;51.034;7.120;2023-05-16T04:10:48;100952.88;;;12.93;67.92
48015;BME280;33780;51.034;7.120;2023-05-16T04:13:14;100959.19;;;12.92;68.42
48015;BME280;33780;51.034;7.120;2023-05-16T04:15:40;100969.22;;;12.90;67.77
48015;BME280;33780;51.034;7.120;2023-05-16T04:18:05;100963.16;;;12.88;67.98
48015;BME280;33780;51.034;7.120;2023-05-16T04:20:30;100958.34;;;12.82;67.96
48015;BME280;33780;51.034;7.120;2023-05-16T04:22:56;100972.06;;;12.79;68.20
48015;BME280;33780;51.034;7.120;2023-05-16T04:25:21;100971.50;;;12.75;68.41
48015;BME280;33780;51.034;7.120;2023-05-16T04:27:46;100968.38;;;12.70;68.45
48015;BME280;33780;51.034;7.120;2023-05-16T04:30:12;100975.00;;;12.66;68.66
48015;BME280;33780;51.034;7.120;2023-05-16T04:32:38;100974.16;;;12.65;68.32
48015;BME280;33780;51.034;7.120;2023-05-16T04:35:04;100982.06;;;12.67;68.12
48015;BME280;33780;51.034;7.120;2023-05-16T04:37:30;100985.03;;;12.64;67.75
48015;BME280;33780;51.034;7.120;2023-05-16T04:39:55;100988.00;;;12.61;67.95
48015;BME280;33780;51.034;7.120;2023-05-16T04:42:21;100992.22;;;12.54;67.68
48015;BME280;33780;51.034;7.120;2023-05-16T04:44:46;100996.03;;;12.51;68.10
48015;BME280;33780;51.034;7.120;2023-05-16T04:47:14;101000.56;;;12.51;68.06
48015;BME280;33780;51.034;7.120;2023-05-16T04:49:39;101006.06;;;12.49;68.11
48015;BME280;33780;51.034;7.120;2023-05-16T04:52:05;101005.22;;;12.49;67.70
48015;BME280;33780;51.034;7.120;2023-05-16T04:54:32;101012.97;;;12.42;67.06
48015;BME280;33780;51.034;7.120;2023-05-16T04:56:57;101013.34;;;12.37;67.73
48015;BME280;33780;51.034;7.120;2023-05-16T04:59:23;101018.72;;;12.37;67.60
48015;BME280;33780;51.034;7.120;2023-05-16T05:01:48;101026.41;;;12.42;68.05
48015;BME280;33780;51.034;7.120;2023-05-16T05:04:14;101029.94;;;12.43;67.70
48015;BME280;33780;51.034;7.120;2023-05-16T05:06:39;101026.66;;;12.39;67.76
48015;BME280;33780;51.034;7.120;2023-05-16T05:09:05;101034.72;;;12.39;67.55
48015;BME280;33780;51.034;7.120;2023-05-16T05:11:31;101041.66;;;12.42;67.38
48015;BME280;33780;51.034;7.120;2023-05-16T05:13:56;101040.66;;;12.43;67.16
48015;BME280;33780;51.034;7.120;2023-05-16T05:16:21;101056.63;;;12.44;66.99
48015;BME280;33780;51.034;7.120;2023-05-16T05:18:47;101045.19;;;12.42;66.27
48015;BME280;33780;51.034;7.120;2023-05-16T05:21:12;101053.38;;;12.40;65.88
48015;BME280;33780;51.034;7.120;2023-05-16T05:23:39;101055.06;;;12.42;66.58
48015;BME280;33780;51.034;7.120;2023-05-16T05:26:04;101063.38;;;12.38;65.05
48015;BME280;33780;51.034;7.120;2023-05-16T05:28:30;101067.19;;;12.36;65.58
48015;BME280;33780;51.034;7.120;2023-05-16T05:30:55;101072.81;;;12.33;65.95
48015;BME280;33780;51.034;7.120;2023-05-16T05:33:25;101067.44;;;12.33;65.44
48015;BME280;33780;51.034;7.120;2023-05-16T05:35:52;101075.94;;;12.38;66.00
48015;BME280;33780;51.034;7.120;2023-05-16T05:38:18;101076.78;;;12.38;65.04
48015;BME280;33780;51.034;7.120;2023-05-16T05:40:43;101079.31;;;12.30;65.31
48015;BME280;33780;51.034;7.120;2023-05-16T05:43:09;101082.91;;;12.20;64.41
48015;BME280;33780;51.034;7.120;2023-05-16T05:45:34;101095.56;;;12.08;64.39
48015;BME280;33780;51.034;7.120;2023-05-16T05:47:59;101095.13;;;12.03;65.25
48015;BME280;33780;51.034;7.120;2023-05-16T05:50:25;101099.88;;;11.99;65.45
48015;BME280;33780;51.034;7.120;2023-05-16T05:52:59;101102.56;;;11.99;65.56
48015;BME280;33780;51.034;7.120;2023-05-16T05:55:25;101102.28;;;12.02;65.86
48015;BME280;33780;51.034;7.120;2023-05-16T05:57:50;101099.69;;;12.12;66.41
48015;BME280;33780;51.034;7.120;2023-05-16T06:00:16;101095.47;;;12.19;66.17
48015;BME280;33780;51.034;7.120;2023-05-16T06:02:41;101109.63;;;12.21;66.17
48015;BME280;33780;51.034;7.120;2023-05-16T06:05:07;101110.28;;;12.14;65.68
48015;BME280;33780;51.034;7.120;2023-05-16T06:07:32;101117.22;;;12.16;66.24
48015;BME280;33780;51.034;7.120;2023-05-16T06:09:57;101107.59;;;12.14;65.70
48015;BME280;33780;51.034;7.120;2023-05-16T06:12:23;101113.81;;;12.14;65.46
48015;BME280;33780;51.034;7.120;2023-05-16T06:14:49;101124.75;;;12.01;64.05
48015;BME280;33780;51.034;7.120;2023-05-16T06:17:14;101129.91;;;11.93;64.27
48015;BME280;33780;51.034;7.120;2023-05-16T06:19:39;101119.84;;;11.86;63.47
48015;BME280;33780;51.034;7.120;2023-05-16T06:22:04;101130.47;;;11.76;64.13
48015;BME280;33780;51.034;7.120;2023-05-16T06:24:30;101134.75;;;11.78;64.47
48015;BME280;33780;51.034;7.120;2023-05-16T06:26:55;101130.47;;;11.76;64.20
48015;BME280;33780;51.034;7.120;2023-05-16T06:29:20;101137.53;;;11.77;64.67
48015;BME280;33780;51.034;7.120;2023-05-16T06:31:46;101139.50;;;11.75;64.55
48015;BME280;33780;51.034;7.120;2023-05-16T06:34:11;101140.22;;;11.77;65.27
48015;BME280;33780;51.034;7.120;2023-05-16T06:36:36;101134.97;;;11.75;64.71
48015;BME280;33780;51.034;7.120;2023-05-16T06:39:02;101138.50;;;11.76;65.39
48015;BME280;33780;51.034;7.120;2023-05-16T06:41:27;101137.34;;;11.69;64.34
48015;BME280;33780;51.034;7.120;2023-05-16T06:43:52;101139.16;;;11.68;64.91
48015;BME280;33780;51.034;7.120;2023-05-16T06:46:18;101135.81;;;11.76;64.85
48015;BME280;33780;51.034;7.120;2023-05-16T06:48:43;101145.59;;;11.66;64.05
48015;BME280;33780;51.034;7.120;2023-05-16T06:51:08;101147.81;;;11.61;64.49
48015;BME280;33780;51.034;7.120;2023-05-16T06:53:34;101145.38;;;11.69;64.88
48015;BME280;33780;51.034;7.120;2023-05-16T06:56:00;101141.91;;;11.78;64.67
48015;BME280;33780;51.034;7.120;2023-05-16T06:58:25;101142.47;;;11.93;64.66
48015;BME280;33780;51.034;7.120;2023-05-16T07:00:51;101145.47;;;11.99;62.58
48015;BME280;33780;51.034;7.120;2023-05-16T07:03:16;101146.28;;;12.11;63.18
48015;BME280;33780;51.034;7.120;2023-05-16T07:05:42;101151.97;;;12.18;63.06
48015;BME280;33780;51.034;7.120;2023-05-16T07:08:08;101155.44;;;12.29;63.37
48015;BME280;33780;51.034;7.120;2023-05-16T07:10:34;101153.78;;;12.38;62.68
48015;BME280;33780;51.034;7.120;2023-05-16T07:13:00;101154.53;;;12.40;61.66
48015;BME280;33780;51.034;7.120;2023-05-16T07:15:26;101153.56;;;12.51;63.27
48015;BME280;33780;51.034;7.120;2023-05-16T07:17:51;101151.22;;;12.57;62.21
48015;BME280;33780;51.034;7.120;2023-05-16T07:20:16;101151.09;;;12.59;62.27
48015;BME280;33780;51.034;7.120;2023-05-16T07:22:42;101153.78;;;12.68;61.65
48015;BME280;33780;51.034;7.120;2023-05-16T07:25:07;101156.63;;;12.67;60.27
48015;BME280;33780;51.034;7.120;2023-05-16T07:27:37;101153.66;;;12.70;60.07
48015;BME280;33780;51.034;7.120;2023-05-16T07:30:06;101156.81;;;12.75;59.81
48015;BME280;33780;51.034;7.120;2023-05-16T07:32:31;101161.34;;;12.84;60.27
48015;BME280;33780;51.034;7.120;2023-05-16T07:34:57;101154.59;;;12.90;58.75
48015;BME280;33780;51.034;7.120;2023-05-16T07:37:22;101155.03;;;12.95;59.31
48015;BME280;33780;51.034;7.120;2023-05-16T07:39:47;101166.09;;;13.01;59.96
48015;BME280;33780;51.034;7.120;2023-05-16T07:42:13;101163.69;;;13.08;59.76
48015;BME280;33780;51.034;7.120;2023-05-16T07:44:38;101160.63;;;13.13;59.48
48015;BME280;33780;51.034;7.120;2023-05-16T07:47:03;101173.34;;;13.11;55.62
48015;BME280;33780;51.034;7.120;2023-05-16T07:49:29;101173.16;;;13.02;55.63
48015;BME280;33780;51.034;7.120;2023-05-16T07:51:54;101176.06;;;12.90;53.45
48015;BME280;33780;51.034;7.120;2023-05-16T07:54:19;101183.69;;;12.85;56.93
48015;BME280;33780;51.034;7.120;2023-05-16T07:56:45;101174.88;;;12.73;56.08
48015;BME280;33780;51.034;7.120;2023-05-16T07:59:10;101183.34;;;12.68;55.54
48015;BME280;33780;51.034;7.120;2023-05-16T08:01:35;101174.19;;;12.50;54.42
48015;BME280;33780;51.034;7.120;2023-05-16T08:04:01;101174.59;;;12.46;55.39
48015;BME280;33780;51.034;7.120;2023-05-16T08:06:26;101180.97;;;12.45;56.27
48015;BME280;33780;51.034;7.120;2023-05-16T08:08:52;101176.59;;;12.53;57.12
48015;BME280;33780;51.034;7.120;2023-05-16T08:11:18;101176.69;;;12.63;56.99
48015;BME280;33780;51.034;7.120;2023-05-16T08:13:47;101180.94;;;12.65;53.81
48015;BME280;33780;51.034;7.120;2023-05-16T08:16:12;101172.28;;;12.62;55.04
48015;BME280;33780;51.034;7.120;2023-05-16T08:18:38;101177.81;;;12.70;54.80
48015;BME280;33780;51.034;7.120;2023-05-16T08:21:03;101163.75;;;12.78;55.91
48015;BME280;33780;51.034;7.120;2023-05-16T08:23:29;101170.69;;;12.90;55.71
48015;BME280;33780;51.034;7.120;2023-05-16T08:25:54;101172.72;;;12.97;55.48
48015;BME280;33780;51.034;7.120;2023-05-16T08:28:19;101170.47;;;13.02;54.51
48015;BME280;33780;51.034;7.120;2023-05-16T08:30:45;101169.19;;;13.07;53.56
48015;BME280;33780;51.034;7.120;2023-05-16T08:33:10;101161.13;;;13.07;49.54
48015;BME280;33780;51.034;7.120;2023-05-16T08:35:36;101175.56;;;13.06;49.72
48015;BME280;33780;51.034;7.120;2023-05-16T08:38:01;101170.06;;;13.07;49.07
48015;BME280;33780;51.034;7.120;2023-05-16T08:40:29;101174.63;;;13.16;51.12
48015;BME280;33780;51.034;7.120;2023-05-16T08:42:55;101168.72;;;13.22;51.26
48015;BME280;33780;51.034;7.120;2023-05-16T08:45:21;101177.25;;;13.07;47.73
48015;BME280;33780;51.034;7.120;2023-05-16T08:47:49;101176.28;;;13.08;46.68
48015;BME280;33780;51.034;7.120;2023-05-16T08:50:15;101170.91;;;13.08;48.83
48015;BME280;33780;51.034;7.120;2023-05-16T08:52:42;101176.31;;;13.17;49.38
48015;BME280;33780;51.034;7.120;2023-05-16T08:55:08;101165.22;;;13.32;50.12
48015;BME280;33780;51.034;7.120;2023-05-16T08:57:34;101167.22;;;13.49;50.74
48015;BME280;33780;51.034;7.120;2023-05-16T09:00:00;101164.09;;;13.63;49.65
48015;BME280;33780;51.034;7.120;2023-05-16T09:02:26;101166.81;;;13.73;48.30
48015;BME280;33780;51.034;7.120;2023-05-16T09:04:53;101162.41;;;13.81;49.58
48015;BME280;33780;51.034;7.120;2023-05-16T09:07:21;101165.41;;;13.88;49.27
48015;BME280;33780;51.034;7.120;2023-05-16T09:09:46;101157.47;;;13.96;50.48
48015;BME280;33780;51.034;7.120;2023-05-16T09:12:11;101164.69;;;13.96;49.07
48015;BME280;33780;51.034;7.120;2023-05-16T09:14:37;101163.72;;;13.87;48.93
48015;BME280;33780;51.034;7.120;2023-05-16T09:17:04;101167.53;;;13.84;50.07
48015;BME280;33780;51.034;7.120;2023-05-16T09:19:40;101170.38;;;13.83;48.61
48015;BME280;33780;51.034;7.120;2023-05-16T09:22:13;101174.16;;;13.80;47.72
48015;BME280;33780;51.034;7.120;2023-05-16T09:24:39;101173.75;;;13.75;48.42
48015;BME280;33780;51.034;7.120;2023-05-16T09:27:09;101180.56;;;13.70;48.24
48015;BME280;33780;51.034;7.120;2023-05-16T09:29:35;101177.72;;;13.71;48.07
48015;BME280;33780;51.034;7.120;2023-05-16T09:32:07;101171.06;;;13.75;48.75
48015;BME280;33780;51.034;7.120;2023-05-16T09:34:37;101153.38;;;13.82;48.11
48015;BME280;33780;51.034;7.120;2023-05-16T09:37:02;101160.03;;;13.88;46.10
48015;BME280;33780;51.034;7.120;2023-05-16T09:39:28;101165.66;;;13.95;46.43
48015;BME280;33780;51.034;7.120;2023-05-16T09:41:53;101170.06;;;14.05;48.08
48015;BME280;33780;51.034;7.120;2023-05-16T09:44:18;101172.06;;;14.03;47.95
48015;BME280;33780;51.034;7.120;2023-05-16T09:46:44;101170.91;;;13.96;48.23
48015;BME280;33780;51.034;7.120;2023-05-16T09:49:13;101168.09;;;13.88;47.98
48015;BME280;33780;51.034;7.120;2023-05-16T09:51:39;101173.16;;;13.81;48.33
48015;BME280;33780;51.034;7.120;2023-05-16T09:54:07;101171.06;;;13.75;48.98
48015;BME280;33780;51.034;7.120;2023-05-16T09:56:32;101174.75;;;13.74;48.94
48015;BME280;33780;51.034;7.120;2023-05-16T09:58:58;101181.94;;;13.64;47.15
48015;BME280;33780;51.034;7.120;2023-05-16T10:01:24;101182.38;;;13.59;47.72
48015;BME280;33780;51.034;7.120;2023-05-16T10:03:50;101174.59;;;13.66;47.31
48015;BME280;33780;51.034;7.120;2023-05-16T10:06:15;101163.13;;;13.74;48.35
48015;BME280;33780;51.034;7.120;2023-05-16T10:08:42;101162.16;;;13.84;47.56
48015;BME280;33780;51.034;7.120;2023-05-16T10:11:08;101159.00;;;13.99;48.55
48015;BME280;33780;51.034;7.120;2023-05-16T10:13:35;101169.78;;;14.08;47.51
48015;BME280;33780;51.034;7.120;2023-05-16T10:16:10;101155.72;;;14.14;47.66
48015;BME280;33780;51.034;7.120;2023-05-16T10:18:38;101173.56;;;14.15;48.17
48015;BME280;33780;51.034;7.120;2023-05-16T10:21:05;101179.81;;;14.16;47.96
48015;BME280;33780;51.034;7.120;2023-05-16T10:23:32;101171.88;;;14.14;46.37
48015;BME280;33780;51.034;7.120;2023-05-16T10:26:03;101174.03;;;14.20;47.45
48015;BME280;33780;51.034;7.120;2023-05-16T10:28:30;101164.50;;;14.26;46.88
48015;BME280;33780;51.034;7.120;2023-05-16T10:30:56;101169.91;;;14.26;43.04
48015;BME280;33780;51.034;7.120;2023-05-16T10:33:21;101167.31;;;14.34;45.14
48015;BME280;33780;51.034;7.120;2023-05-16T10:35:47;101166.03;;;14.48;45.82
48015;BME280;33780;51.034;7.120;2023-05-16T10:38:16;101150.72;;;14.58;46.64
48015;BME280;33780;51.034;7.120;2023-05-16T10:40:41;101159.28;;;14.71;46.97
48015;BME280;33780;51.034;7.120;2023-05-16T10:43:08;101158.03;;;14.75;45.53
48015;BME280;33780;51.034;7.120;2023-05-16T10:45:34;101150.09;;;14.74;45.73
48015;BME280;33780;51.034;7.120;2023-05-16T10:48:11;101152.63;;;14.75;45.36
48015;BME280;33780;51.034;7.120;2023-05-16T10:56:06;101155.06;;;14.69;42.74
48015;BME280;33780;51.034;7.120;2023-05-16T11:01:17;101164.13;;;14.68;45.09
48015;BME280;33780;51.034;7.120;2023-05-16T11:06:28;101159.78;;;14.57;45.14
48015;BME280;33780;51.034;7.120;2023-05-16T11:09:20;101156.75;;;14.70;46.52
48015;BME280;33780;51.034;7.120;2023-05-16T11:12:02;101159.81;;;14.85;45.71
48015;BME280;33780;51.034;7.120;2023-05-16T11:19:44;101150.16;;;14.92;41.69
48015;BME280;33780;51.034;7.120;2023-05-16T11:24:59;101151.97;;;15.19;44.02
48015;BME280;33780;51.034;7.120;2023-05-16T11:27:42;101152.47;;;15.32;44.33
48015;BME280;33780;51.034;7.120;2023-05-16T11:30:12;101150.31;;;15.35;42.40
48015;BME280;33780;51.034;7.120;2023-05-16T11:32:39;101153.53;;;15.21;41.21
48015;BME280;33780;51.034;7.120;2023-05-16T11:35:07;101161.06;;;15.18;42.02
48015;BME280;33780;51.034;7.120;2023-05-16T11:37:33;101173.69;;;15.17;43.76
48015;BME280;33780;51.034;7.120;2023-05-16T11:40:04;101171.47;;;15.13;43.24
48015;BME280;33780;51.034;7.120;2023-05-16T11:42:33;101174.03;;;15.04;43.38
48015;BME280;33780;51.034;7.120;2023-05-16T11:45:13;101178.28;;;15.07;44.45
48015;BME280;33780;51.034;7.120;2023-05-16T11:47:39;101179.13;;;15.07;44.18
48015;BME280;33780;51.034;7.120;2023-05-16T11:50:06;101181.59;;;15.01;44.17
48015;BME280;33780;51.034;7.120;2023-05-16T11:52:35;101191.16;;;14.86;43.62
48015;BME280;33780;51.034;7.120;2023-05-16T11:55:03;101190.22;;;14.77;43.98
48015;BME280;33780;51.034;7.120;2023-05-16T11:57:28;101180.44;;;14.76;45.04
48015;BME280;33780;51.034;7.120;2023-05-16T11:59:54;101170.03;;;14.91;45.21
48015;BME280;33780;51.034;7.120;2023-05-16T12:02:19;101172.81;;;14.99;44.61
48015;BME280;33780;51.034;7.120;2023-05-16T12:04:48;101161.72;;;15.02;43.88
48015;BME280;33780;51.034;7.120;2023-05-16T12:07:14;101166.38;;;15.09;45.36
48015;BME280;33780;51.034;7.120;2023-05-16T12:09:40;101159.91;;;15.20;45.08
48015;BME280;33780;51.034;7.120;2023-05-16T12:12:06;101162.72;;;15.28;43.76
48015;BME280;33780;51.034;7.120;2023-05-16T12:14:31;101165.00;;;15.23;43.73
48015;BME280;33780;51.034;7.120;2023-05-16T12:16:57;101168.69;;;15.22;44.45
48015;BME280;33780;51.034;7.120;2023-05-16T12:19:22;101161.25;;;15.34;44.98
48015;BME280;33780;51.034;7.120;2023-05-16T12:21:52;101168.72;;;15.40;45.68
48015;BME280;33780;51.034;7.120;2023-05-16T12:24:18;101175.59;;;15.34;45.39
48015;BME280;33780;51.034;7.120;2023-05-16T12:26:43;101166.19;;;15.38;46.26
48015;BME280;33780;51.034;7.120;2023-05-16T12:29:09;101163.13;;;15.51;46.02
48015;BME280;33780;51.034;7.120;2023-05-16T12:31:39;101156.56;;;15.63;45.50
48015;BME280;33780;51.034;7.120;2023-05-16T12:34:14;101156.16;;;15.76;44.80
48015;BME280;33780;51.034;7.120;2023-05-16T12:36:39;101148.50;;;15.89;43.44
48015;BME280;33780;51.034;7.120;2023-05-16T12:39:04;101152.00;;;15.99;42.52
48015;BME280;33780;51.034;7.120;2023-05-16T12:41:30;101150.19;;;16.08;43.17
48015;BME280;33780;51.034;7.120;2023-05-16T12:44:07;101161.47;;;16.04;41.90
48015;BME280;33780;51.034;7.120;2023-05-16T12:46:43;101155.53;;;16.00;42.64
48015;BME280;33780;51.034;7.120;2023-05-16T12:49:12;101153.53;;;16.02;42.97
48015;BME280;33780;51.034;7.120;2023-05-16T12:51:38;101155.22;;;16.03;43.83
48015;BME280;33780;51.034;7.120;2023-05-16T12:54:10;101162.84;;;16.08;44.15
48015;BME280;33780;51.034;7.120;2023-05-16T12:56:40;101164.69;;;16.07;43.19
48015;BME280;33780;51.034;7.120;2023-05-16T12:59:06;101165.69;;;16.06;44.34
48015;BME280;33780;51.034;7.120;2023-05-16T13:01:32;101174.81;;;16.05;44.71
48015;BME280;33780;51.034;7.120;2023-05-16T13:03:57;101175.69;;;16.14;44.95
48015;BME280;33780;51.034;7.120;2023-05-16T13:06:23;101177.56;;;16.13;44.66
48015;BME280;33780;51.034;7.120;2023-05-16T13:08:48;101178.34;;;16.06;44.23